sensor_id;sensor_type;location;lat;lon;timestamp;P1;durP1;ratioP1;P2;durP2;ratioP2
8349;SDS011;60699;48.946;8.412;2023-04-29T00:00:50;3.07;;;2.77;;
8349;SDS011;60699;48.946;8.412;2023-04-29T00:03:17;2.70;;;2.50;;
8349;SDS011;60699;48.946;8.412;2023-04-29T00:05:44;3.43;;;3.13;;
8349;SDS011;60699;48.946;8.412;2023-04-29T00:08:11;2.20;;;2.10;;
8349;SDS011;60699;48.946;8.412;2023-04-29T00:10:39;2.83;;;2.60;;
8349;SDS011;60699;48.946;8.412;2023-04-29T00:13:06;2.60;;;2.40;;
8349;SDS011;60699;48.946;8.412;2023-04-29T00:15:34;2.70;;;2.50;;
8349;SDS011;60699;48.946;8.412;2023-04-29T00:18:02;3.10;;;2.80;;
8349;SDS011;60699;48.946;8.412;2023-04-29T00:20:29;3.00;;;2.80;;
8349;SDS011;60699;48.946;8.412;2023-04-29T00:22:56;5.17;;;2.50;;
8349;SDS011;60699;48.946;8.412;2023-04-29T00:25:24;3.40;;;3.10;;
8349;SDS011;60699;48.946;8.412;2023-04-29T00:27:51;3.70;;;2.53;;
8349;SDS011;60699;48.946;8.412;2023-04-29T00:30:18;3.23;;;2.53;;
8349;SDS011;60699;48.946;8.412;2023-04-29T00:32:45;4.13;;;2.70;;
8349;SDS011;60699;48.946;8.412;2023-04-29T00:35:13;2.43;;;2.30;;
8349;SDS011;60699;48.946;8.412;2023-04-29T00:37:40;3.23;;;2.67;;
8349;SDS011;60699;48.946;8.412;2023-04-29T00:40:07;2.40;;;2.20;;
8349;SDS011;60699;48.946;8.412;2023-04-29T00:42:35;3.00;;;2.80;;
8349;SDS011;60699;48.946;8.412;2023-04-29T00:45:02;3.23;;;2.77;;
8349;SDS011;60699;48.946;8.412;2023-04-29T00:47:29;3.30;;;2.65;;
8349;SDS011;60699;48.946;8.412;2023-04-29T00:49:56;2.65;;;2.30;;
8349;SDS011;60699;48.946;8.412;2023-04-29T00:52:25;2.50;;;2.30;;
8349;SDS011;60699;48.946;8.412;2023-04-29T00:54:55;6.60;;;3.33;;
8349;SDS011;60699;48.946;8.412;2023-04-29T00:57:23;2.80;;;2.60;;
8349;SDS011;60699;48.946;8.412;2023-04-29T00:59:53;3.30;;;3.10;;
8349;SDS011;60699;48.946;8.412;2023-04-29T01:02:20;3.70;;;3.27;;
8349;SDS011;60699;48.946;8.412;2023-04-29T01:04:47;3.95;;;3.13;;
8349;SDS011;60699;48.946;8.412;2023-04-29T01:07:14;2.93;;;2.73;;
8349;SDS011;60699;48.946;8.412;2023-04-29T01:09:55;3.27;;;2.97;;
8349;SDS011;60699;48.946;8.412;2023-04-29T01:12:30;3.33;;;3.13;;
8349;SDS011;60699;48.946;8.412;2023-04-29T01:15:02;3.30;;;3.07;;
8349;SDS011;60699;48.946;8.412;2023-04-29T01:17:30;3.20;;;2.90;;
8349;SDS011;60699;48.946;8.412;2023-04-29T01:20:01;4.30;;;3.63;;
8349;SDS011;60699;48.946;8.412;2023-04-29T01:22:28;3.53;;;3.28;;
8349;SDS011;60699;48.946;8.412;2023-04-29T01:24:56;3.13;;;2.85;;
8349;SDS011;60699;48.946;8.412;2023-04-29T01:27:27;3.10;;;2.80;;
8349;SDS011;60699;48.946;8.412;2023-04-29T01:29:56;3.43;;;3.13;;
8349;SDS011;60699;48.946;8.412;2023-04-29T01:32:28;6.95;;;3.63;;
8349;SDS011;60699;48.946;8.412;2023-04-29T01:34:59;3.30;;;3.10;;
8349;SDS011;60699;48.946;8.412;2023-04-29T01:37:32;3.75;;;3.28;;
8349;SDS011;60699;48.946;8.412;2023-04-29T01:40:09;3.08;;;2.88;;
8349;SDS011;60699;48.946;8.412;2023-04-29T01:42:38;3.20;;;2.80;;
8349;SDS011;60699;48.946;8.412;2023-04-29T01:45:05;3.25;;;3.05;;
8349;SDS011;60699;48.946;8.412;2023-04-29T01:47:34;8.57;;;3.72;;
8349;SDS011;60699;48.946;8.412;2023-04-29T01:50:01;3.20;;;3.00;;
8349;SDS011;60699;48.946;8.412;2023-04-29T01:52:28;3.63;;;3.35;;
8349;SDS011;60699;48.946;8.412;2023-04-29T01:54:55;2.97;;;2.78;;
8349;SDS011;60699;48.946;8.412;2023-04-29T01:57:24;3.67;;;3.38;;
8349;SDS011;60699;48.946;8.412;2023-04-29T01:59:51;3.47;;;3.20;;
8349;SDS011;60699;48.946;8.412;2023-04-29T02:02:18;3.50;;;3.20;;
8349;SDS011;60699;48.946;8.412;2023-04-29T02:04:47;4.43;;;4.03;;
8349;SDS011;60699;48.946;8.412;2023-04-29T02:07:14;4.43;;;4.03;;
8349;SDS011;60699;48.946;8.412;2023-04-29T02:09:41;3.47;;;3.17;;
8349;SDS011;60699;48.946;8.412;2023-04-29T02:12:08;8.85;;;3.63;;
8349;SDS011;60699;48.946;8.412;2023-04-29T02:14:37;4.38;;;3.97;;
8349;SDS011;60699;48.946;8.412;2023-04-29T02:17:04;3.45;;;3.10;;
8349;SDS011;60699;48.946;8.412;2023-04-29T02:19:31;4.00;;;3.60;;
8349;SDS011;60699;48.946;8.412;2023-04-29T02:21:58;3.60;;;3.30;;
8349;SDS011;60699;48.946;8.412;2023-04-29T02:24:25;3.85;;;3.25;;
8349;SDS011;60699;48.946;8.412;2023-04-29T02:26:52;7.03;;;4.68;;
8349;SDS011;60699;48.946;8.412;2023-04-29T02:29:19;4.00;;;3.70;;
8349;SDS011;60699;48.946;8.412;2023-04-29T02:31:48;3.80;;;3.50;;
8349;SDS011;60699;48.946;8.412;2023-04-29T02:34:15;4.13;;;3.55;;
8349;SDS011;60699;48.946;8.412;2023-04-29T02:36:42;3.92;;;3.55;;
8349;SDS011;60699;48.946;8.412;2023-04-29T02:39:09;4.07;;;3.67;;
8349;SDS011;60699;48.946;8.412;2023-04-29T02:41:36;8.88;;;3.92;;
8349;SDS011;60699;48.946;8.412;2023-04-29T02:44:03;4.40;;;3.75;;
8349;SDS011;60699;48.946;8.412;2023-04-29T02:46:30;5.00;;;4.50;;
8349;SDS011;60699;48.946;8.412;2023-04-29T02:48:59;4.40;;;3.53;;
8349;SDS011;60699;48.946;8.412;2023-04-29T02:51:27;4.97;;;3.67;;
8349;SDS011;60699;48.946;8.412;2023-04-29T02:53:54;4.78;;;4.38;;
8349;SDS011;60699;48.946;8.412;2023-04-29T02:56:22;4.20;;;3.80;;
8349;SDS011;60699;48.946;8.412;2023-04-29T02:58:49;4.30;;;3.90;;
8349;SDS011;60699;48.946;8.412;2023-04-29T03:01:16;3.90;;;3.60;;
8349;SDS011;60699;48.946;8.412;2023-04-29T03:03:43;4.55;;;4.15;;
8349;SDS011;60699;48.946;8.412;2023-04-29T03:06:11;6.55;;;4.13;;
8349;SDS011;60699;48.946;8.412;2023-04-29T03:08:39;3.67;;;3.38;;
8349;SDS011;60699;48.946;8.412;2023-04-29T03:11:07;5.30;;;3.28;;
8349;SDS011;60699;48.946;8.412;2023-04-29T03:13:34;4.32;;;3.83;;
8349;SDS011;60699;48.946;8.412;2023-04-29T03:16:01;3.50;;;3.17;;
8349;SDS011;60699;48.946;8.412;2023-04-29T03:18:28;4.07;;;3.70;;
8349;SDS011;60699;48.946;8.412;2023-04-29T03:20:55;3.40;;;3.17;;
8349;SDS011;60699;48.946;8.412;2023-04-29T03:23:24;3.90;;;3.60;;
8349;SDS011;60699;48.946;8.412;2023-04-29T03:25:52;4.70;;;4.30;;
8349;SDS011;60699;48.946;8.412;2023-04-29T03:28:19;3.70;;;3.25;;
8349;SDS011;60699;48.946;8.412;2023-04-29T03:30:46;4.13;;;3.70;;
8349;SDS011;60699;48.946;8.412;2023-04-29T03:33:13;4.15;;;3.70;;
8349;SDS011;60699;48.946;8.412;2023-04-29T03:35:40;4.32;;;3.92;;
8349;SDS011;60699;48.946;8.412;2023-04-29T03:38:07;4.50;;;4.20;;
8349;SDS011;60699;48.946;8.412;2023-04-29T03:40:36;5.18;;;3.92;;
8349;SDS011;60699;48.946;8.412;2023-04-29T03:43:03;4.82;;;3.90;;
8349;SDS011;60699;48.946;8.412;2023-04-29T03:45:30;3.55;;;3.30;;
8349;SDS011;60699;48.946;8.412;2023-04-29T03:47:57;3.75;;;3.45;;
8349;SDS011;60699;48.946;8.412;2023-04-29T03:50:25;5.07;;;3.20;;
8349;SDS011;60699;48.946;8.412;2023-04-29T03:52:52;4.00;;;3.70;;
8349;SDS011;60699;48.946;8.412;2023-04-29T03:55:19;3.60;;;3.30;;
8349;SDS011;60699;48.946;8.412;2023-04-29T03:57:47;4.00;;;3.70;;
8349;SDS011;60699;48.946;8.412;2023-04-29T04:00:14;3.88;;;3.55;;
8349;SDS011;60699;48.946;8.412;2023-04-29T04:02:42;3.53;;;3.13;;
8349;SDS011;60699;48.946;8.412;2023-04-29T04:05:09;5.43;;;3.03;;
8349;SDS011;60699;48.946;8.412;2023-04-29T04:07:36;3.20;;;3.00;;
8349;SDS011;60699;48.946;8.412;2023-04-29T04:10:03;3.67;;;3.38;;
8349;SDS011;60699;48.946;8.412;2023-04-29T04:12:30;5.40;;;3.10;;
8349;SDS011;60699;48.946;8.412;2023-04-29T04:14:59;3.80;;;3.50;;
8349;SDS011;60699;48.946;8.412;2023-04-29T04:17:26;4.50;;;4.13;;
8349;SDS011;60699;48.946;8.412;2023-04-29T04:19:53;4.25;;;3.42;;
8349;SDS011;60699;48.946;8.412;2023-04-29T04:22:20;3.17;;;2.97;;
8349;SDS011;60699;48.946;8.412;2023-04-29T04:24:47;4.15;;;3.72;;
8349;SDS011;60699;48.946;8.412;2023-04-29T04:27:14;3.80;;;3.53;;
8349;SDS011;60699;48.946;8.412;2023-04-29T04:29:41;3.40;;;3.10;;
8349;SDS011;60699;48.946;8.412;2023-04-29T04:32:10;4.03;;;3.63;;
8349;SDS011;60699;48.946;8.412;2023-04-29T04:34:37;3.25;;;3.00;;
8349;SDS011;60699;48.946;8.412;2023-04-29T04:37:04;3.72;;;3.42;;
8349;SDS011;60699;48.946;8.412;2023-04-29T04:39:32;4.05;;;3.35;;
8349;SDS011;60699;48.946;8.412;2023-04-29T04:41:59;3.22;;;3.03;;
8349;SDS011;60699;48.946;8.412;2023-04-29T04:44:27;4.15;;;3.85;;
8349;SDS011;60699;48.946;8.412;2023-04-29T04:46:55;3.97;;;3.05;;
8349;SDS011;60699;48.946;8.412;2023-04-29T04:49:24;3.20;;;2.90;;
8349;SDS011;60699;48.946;8.412;2023-04-29T04:51:51;4.07;;;3.65;;
8349;SDS011;60699;48.946;8.412;2023-04-29T04:54:18;3.00;;;2.70;;
8349;SDS011;60699;48.946;8.412;2023-04-29T04:56:45;3.45;;;3.10;;
8349;SDS011;60699;48.946;8.412;2023-04-29T04:59:12;3.47;;;2.80;;
8349;SDS011;60699;48.946;8.412;2023-04-29T05:01:39;3.35;;;3.05;;
8349;SDS011;60699;48.946;8.412;2023-04-29T05:04:06;2.75;;;2.42;;
8349;SDS011;60699;48.946;8.412;2023-04-29T05:06:34;3.47;;;2.83;;
8349;SDS011;60699;48.946;8.412;2023-04-29T05:09:01;3.60;;;2.85;;
8349;SDS011;60699;48.946;8.412;2023-04-29T05:11:29;3.80;;;3.25;;
8349;SDS011;60699;48.946;8.412;2023-04-29T05:13:55;3.50;;;3.20;;
8349;SDS011;60699;48.946;8.412;2023-04-29T05:16:22;3.53;;;2.92;;
8349;SDS011;60699;48.946;8.412;2023-04-29T05:18:50;3.03;;;2.75;;
8349;SDS011;60699;48.946;8.412;2023-04-29T05:21:17;3.78;;;3.33;;
8349;SDS011;60699;48.946;8.412;2023-04-29T05:23:45;7.07;;;3.38;;
8349;SDS011;60699;48.946;8.412;2023-04-29T05:26:12;4.15;;;3.75;;
8349;SDS011;60699;48.946;8.412;2023-04-29T05:28:39;10.18;;;3.22;;
8349;SDS011;60699;48.946;8.412;2023-04-29T05:31:06;2.42;;;2.22;;
8349;SDS011;60699;48.946;8.412;2023-04-29T05:33:33;5.60;;;2.85;;
8349;SDS011;60699;48.946;8.412;2023-04-29T05:36:00;2.65;;;2.45;;
8349;SDS011;60699;48.946;8.412;2023-04-29T05:38:27;3.95;;;3.13;;
8349;SDS011;60699;48.946;8.412;2023-04-29T05:40:55;3.03;;;2.55;;
8349;SDS011;60699;48.946;8.412;2023-04-29T05:43:22;4.10;;;2.55;;
8349;SDS011;60699;48.946;8.412;2023-04-29T05:45:50;3.67;;;2.83;;
8349;SDS011;60699;48.946;8.412;2023-04-29T05:48:17;3.80;;;3.08;;
8349;SDS011;60699;48.946;8.412;2023-04-29T05:50:44;2.50;;;2.30;;
8349;SDS011;60699;48.946;8.412;2023-04-29T05:53:12;3.03;;;2.83;;
8349;SDS011;60699;48.946;8.412;2023-04-29T05:55:39;2.80;;;2.60;;
8349;SDS011;60699;48.946;8.412;2023-04-29T05:58:10;3.13;;;2.83;;
8349;SDS011;60699;48.946;8.412;2023-04-29T06:00:37;7.57;;;2.92;;
8349;SDS011;60699;48.946;8.412;2023-04-29T06:03:04;2.97;;;2.70;;
8349;SDS011;60699;48.946;8.412;2023-04-29T06:05:31;3.00;;;2.80;;
8349;SDS011;60699;48.946;8.412;2023-04-29T06:07:59;3.58;;;3.10;;
8349;SDS011;60699;48.946;8.412;2023-04-29T06:10:27;2.83;;;2.63;;
8349;SDS011;60699;48.946;8.412;2023-04-29T06:12:54;2.50;;;2.30;;
8349;SDS011;60699;48.946;8.412;2023-04-29T06:15:22;3.55;;;2.67;;
8349;SDS011;60699;48.946;8.412;2023-04-29T06:17:49;3.10;;;2.90;;
8349;SDS011;60699;48.946;8.412;2023-04-29T06:20:16;3.22;;;2.92;;
8349;SDS011;60699;48.946;8.412;2023-04-29T06:22:43;2.92;;;2.70;;
8349;SDS011;60699;48.946;8.412;2023-04-29T06:25:11;3.05;;;2.60;;
8349;SDS011;60699;48.946;8.412;2023-04-29T06:27:39;2.97;;;2.75;;
8349;SDS011;60699;48.946;8.412;2023-04-29T06:30:06;3.35;;;3.05;;
8349;SDS011;60699;48.946;8.412;2023-04-29T06:32:35;5.93;;;2.22;;
8349;SDS011;60699;48.946;8.412;2023-04-29T06:35:02;4.43;;;4.03;;
8349;SDS011;60699;48.946;8.412;2023-04-29T06:37:29;3.17;;;2.90;;
8349;SDS011;60699;48.946;8.412;2023-04-29T06:39:56;3.13;;;2.78;;
8349;SDS011;60699;48.946;8.412;2023-04-29T06:42:23;4.45;;;2.97;;
8349;SDS011;60699;48.946;8.412;2023-04-29T06:44:50;2.90;;;2.70;;
8349;SDS011;60699;48.946;8.412;2023-04-29T06:47:16;2.95;;;2.75;;
8349;SDS011;60699;48.946;8.412;2023-04-29T06:49:45;3.20;;;2.90;;
8349;SDS011;60699;48.946;8.412;2023-04-29T06:52:12;3.85;;;3.60;;
8349;SDS011;60699;48.946;8.412;2023-04-29T06:54:39;2.92;;;2.63;;
8349;SDS011;60699;48.946;8.412;2023-04-29T06:57:06;2.85;;;2.65;;
8349;SDS011;60699;48.946;8.412;2023-04-29T06:59:33;3.38;;;3.10;;
8349;SDS011;60699;48.946;8.412;2023-04-29T07:02:00;3.35;;;2.88;;
8349;SDS011;60699;48.946;8.412;2023-04-29T07:04:27;3.58;;;3.30;;
8349;SDS011;60699;48.946;8.412;2023-04-29T07:06:56;3.22;;;2.92;;
8349;SDS011;60699;48.946;8.412;2023-04-29T07:09:23;3.70;;;2.97;;
8349;SDS011;60699;48.946;8.412;2023-04-29T07:11:51;3.20;;;2.85;;
8349;SDS011;60699;48.946;8.412;2023-04-29T07:14:18;2.47;;;2.28;;
8349;SDS011;60699;48.946;8.412;2023-04-29T07:16:47;3.38;;;3.08;;
8349;SDS011;60699;48.946;8.412;2023-04-29T07:19:13;2.90;;;2.70;;
8349;SDS011;60699;48.946;8.412;2023-04-29T07:21:40;5.50;;;3.40;;
8349;SDS011;60699;48.946;8.412;2023-04-29T07:24:09;4.18;;;3.60;;
8349;SDS011;60699;48.946;8.412;2023-04-29T07:26:36;3.45;;;3.15;;
8349;SDS011;60699;48.946;8.412;2023-04-29T07:29:03;3.88;;;3.25;;
8349;SDS011;60699;48.946;8.412;2023-04-29T07:31:30;3.03;;;2.80;;
8349;SDS011;60699;48.946;8.412;2023-04-29T07:33:57;3.85;;;3.22;;
8349;SDS011;60699;48.946;8.412;2023-04-29T07:36:24;3.55;;;3.03;;
8349;SDS011;60699;48.946;8.412;2023-04-29T07:38:52;3.92;;;3.63;;
8349;SDS011;60699;48.946;8.412;2023-04-29T07:41:21;4.78;;;4.15;;
8349;SDS011;60699;48.946;8.412;2023-04-29T07:43:48;5.70;;;4.07;;
8349;SDS011;60699;48.946;8.412;2023-04-29T07:46:15;3.67;;;2.80;;
8349;SDS011;60699;48.946;8.412;2023-04-29T07:48:42;3.78;;;3.25;;
8349;SDS011;60699;48.946;8.412;2023-04-29T07:51:11;4.75;;;3.20;;
8349;SDS011;60699;48.946;8.412;2023-04-29T07:53:38;2.63;;;2.53;;
8349;SDS011;60699;48.946;8.412;2023-04-29T07:56:06;3.75;;;3.17;;
8349;SDS011;60699;48.946;8.412;2023-04-29T07:58:35;8.85;;;2.85;;
8349;SDS011;60699;48.946;8.412;2023-04-29T08:01:05;3.50;;;3.20;;
8349;SDS011;60699;48.946;8.412;2023-04-29T08:03:32;3.35;;;3.05;;
8349;SDS011;60699;48.946;8.412;2023-04-29T08:06:00;2.97;;;2.65;;
8349;SDS011;60699;48.946;8.412;2023-04-29T08:08:27;2.97;;;2.75;;
8349;SDS011;60699;48.946;8.412;2023-04-29T08:10:54;2.70;;;2.50;;
8349;SDS011;60699;48.946;8.412;2023-04-29T08:13:21;3.92;;;3.53;;
8349;SDS011;60699;48.946;8.412;2023-04-29T08:15:49;4.47;;;3.78;;
8349;SDS011;60699;48.946;8.412;2023-04-29T08:18:17;3.60;;;3.25;;
8349;SDS011;60699;48.946;8.412;2023-04-29T08:20:45;3.58;;;3.38;;
8349;SDS011;60699;48.946;8.412;2023-04-29T08:23:13;3.25;;;2.90;;
8349;SDS011;60699;48.946;8.412;2023-04-29T08:25:40;5.25;;;3.33;;
8349;SDS011;60699;48.946;8.412;2023-04-29T08:28:08;3.17;;;2.85;;
8349;SDS011;60699;48.946;8.412;2023-04-29T08:30:36;3.88;;;3.35;;
8349;SDS011;60699;48.946;8.412;2023-04-29T08:33:04;3.83;;;3.45;;
8349;SDS011;60699;48.946;8.412;2023-04-29T08:35:32;4.00;;;3.60;;
8349;SDS011;60699;48.946;8.412;2023-04-29T08:38:01;3.55;;;3.28;;
8349;SDS011;60699;48.946;8.412;2023-04-29T08:40:29;3.83;;;3.53;;
8349;SDS011;60699;48.946;8.412;2023-04-29T08:42:56;3.97;;;3.60;;
8349;SDS011;60699;48.946;8.412;2023-04-29T08:45:23;4.50;;;3.42;;
8349;SDS011;60699;48.946;8.412;2023-04-29T08:47:50;4.35;;;3.65;;
8349;SDS011;60699;48.946;8.412;2023-04-29T08:50:19;3.53;;;3.22;;
8349;SDS011;60699;48.946;8.412;2023-04-29T08:52:46;3.30;;;3.10;;
8349;SDS011;60699;48.946;8.412;2023-04-29T08:55:13;6.32;;;3.65;;
8349;SDS011;60699;48.946;8.412;2023-04-29T08:57:40;3.08;;;2.78;;
8349;SDS011;60699;48.946;8.412;2023-04-29T09:00:09;2.97;;;2.78;;
8349;SDS011;60699;48.946;8.412;2023-04-29T09:02:37;3.95;;;3.50;;
8349;SDS011;60699;48.946;8.412;2023-04-29T09:05:07;3.30;;;3.00;;
8349;SDS011;60699;48.946;8.412;2023-04-29T09:07:36;2.95;;;2.75;;
8349;SDS011;60699;48.946;8.412;2023-04-29T09:10:04;3.63;;;3.33;;
8349;SDS011;60699;48.946;8.412;2023-04-29T09:12:31;4.95;;;3.38;;
8349;SDS011;60699;48.946;8.412;2023-04-29T09:14:58;3.80;;;3.50;;
8349;SDS011;60699;48.946;8.412;2023-04-29T09:17:38;5.18;;;3.60;;
8349;SDS011;60699;48.946;8.412;2023-04-29T09:20:21;4.07;;;3.67;;
8349;SDS011;60699;48.946;8.412;2023-04-29T09:22:53;4.50;;;3.50;;
8349;SDS011;60699;48.946;8.412;2023-04-29T09:25:20;5.72;;;3.50;;
8349;SDS011;60699;48.946;8.412;2023-04-29T09:27:47;6.25;;;3.22;;
8349;SDS011;60699;48.946;8.412;2023-04-29T09:30:14;5.83;;;5.30;;
8349;SDS011;60699;48.946;8.412;2023-04-29T09:32:41;4.00;;;3.65;;
8349;SDS011;60699;48.946;8.412;2023-04-29T09:35:21;3.97;;;3.60;;
8349;SDS011;60699;48.946;8.412;2023-04-29T09:37:48;5.68;;;3.55;;
8349;SDS011;60699;48.946;8.412;2023-04-29T09:40:27;3.65;;;3.33;;
8349;SDS011;60699;48.946;8.412;2023-04-29T09:42:55;3.30;;;3.10;;
8349;SDS011;60699;48.946;8.412;2023-04-29T09:45:32;3.63;;;3.33;;
8349;SDS011;60699;48.946;8.412;2023-04-29T09:48:02;4.47;;;3.42;;
8349;SDS011;60699;48.946;8.412;2023-04-29T09:50:30;3.63;;;3.33;;
8349;SDS011;60699;48.946;8.412;2023-04-29T09:52:57;3.38;;;3.05;;
8349;SDS011;60699;48.946;8.412;2023-04-29T09:55:24;4.18;;;3.85;;
8349;SDS011;60699;48.946;8.412;2023-04-29T09:57:53;3.92;;;2.95;;
8349;SDS011;60699;48.946;8.412;2023-04-29T10:00:20;3.70;;;3.40;;
8349;SDS011;60699;48.946;8.412;2023-04-29T10:02:47;3.42;;;3.13;;
8349;SDS011;60699;48.946;8.412;2023-04-29T10:05:15;3.47;;;2.70;;
8349;SDS011;60699;48.946;8.412;2023-04-29T10:07:42;4.00;;;3.70;;
8349;SDS011;60699;48.946;8.412;2023-04-29T10:10:12;5.43;;;3.90;;
8349;SDS011;60699;48.946;8.412;2023-04-29T10:12:39;3.25;;;2.95;;
8349;SDS011;60699;48.946;8.412;2023-04-29T10:15:09;4.50;;;3.05;;
8349;SDS011;60699;48.946;8.412;2023-04-29T10:17:40;5.93;;;4.70;;
8349;SDS011;60699;48.946;8.412;2023-04-29T10:20:09;4.40;;;4.00;;
8349;SDS011;60699;48.946;8.412;2023-04-29T10:22:42;4.20;;;3.90;;
8349;SDS011;60699;48.946;8.412;2023-04-29T10:25:11;4.57;;;4.28;;
8349;SDS011;60699;48.946;8.412;2023-04-29T10:27:38;6.80;;;4.80;;
8349;SDS011;60699;48.946;8.412;2023-04-29T10:30:10;3.90;;;3.60;;
8349;SDS011;60699;48.946;8.412;2023-04-29T10:32:38;4.38;;;3.97;;
8349;SDS011;60699;48.946;8.412;2023-04-29T10:35:07;4.00;;;3.65;;
8349;SDS011;60699;48.946;8.412;2023-04-29T10:37:35;4.23;;;3.83;;
8349;SDS011;60699;48.946;8.412;2023-04-29T10:40:06;4.40;;;4.00;;
8349;SDS011;60699;48.946;8.412;2023-04-29T10:42:36;4.00;;;3.60;;
8349;SDS011;60699;48.946;8.412;2023-04-29T10:45:20;5.73;;;3.40;;
8349;SDS011;60699;48.946;8.412;2023-04-29T10:50:34;3.53;;;3.22;;
8349;SDS011;60699;48.946;8.412;2023-04-29T10:53:06;4.93;;;4.50;;
8349;SDS011;60699;48.946;8.412;2023-04-29T10:55:34;7.37;;;4.60;;
8349;SDS011;60699;48.946;8.412;2023-04-29T10:58:02;7.03;;;5.57;;
8349;SDS011;60699;48.946;8.412;2023-04-29T11:00:31;11.43;;;6.10;;
8349;SDS011;60699;48.946;8.412;2023-04-29T11:02:59;7.85;;;5.22;;
8349;SDS011;60699;48.946;8.412;2023-04-29T11:05:30;7.57;;;5.57;;
8349;SDS011;60699;48.946;8.412;2023-04-29T11:08:08;6.75;;;5.75;;
8349;SDS011;60699;48.946;8.412;2023-04-29T11:10:36;8.40;;;6.90;;
8349;SDS011;60699;48.946;8.412;2023-04-29T11:13:22;16.52;;;6.97;;
8349;SDS011;60699;48.946;8.412;2023-04-29T11:15:51;10.10;;;6.00;;
8349;SDS011;60699;48.946;8.412;2023-04-29T11:18:19;7.68;;;6.22;;
8349;SDS011;60699;48.946;8.412;2023-04-29T11:23:32;8.13;;;6.93;;
8349;SDS011;60699;48.946;8.412;2023-04-29T11:25:59;9.25;;;5.53;;
8349;SDS011;60699;48.946;8.412;2023-04-29T11:28:27;9.05;;;6.80;;
8349;SDS011;60699;48.946;8.412;2023-04-29T11:30:55;7.97;;;7.05;;
8349;SDS011;60699;48.946;8.412;2023-04-29T11:33:23;12.05;;;7.95;;
8349;SDS011;60699;48.946;8.412;2023-04-29T11:35:51;9.07;;;5.18;;
8349;SDS011;60699;48.946;8.412;2023-04-29T11:38:22;7.85;;;6.45;;
8349;SDS011;60699;48.946;8.412;2023-04-29T11:40:50;7.57;;;5.97;;
8349;SDS011;60699;48.946;8.412;2023-04-29T11:43:17;9.27;;;6.25;;
8349;SDS011;60699;48.946;8.412;2023-04-29T11:45:44;10.85;;;6.25;;
8349;SDS011;60699;48.946;8.412;2023-04-29T11:48:17;7.47;;;5.57;;
8349;SDS011;60699;48.946;8.412;2023-04-29T11:50:44;6.82;;;4.50;;
8349;SDS011;60699;48.946;8.412;2023-04-29T11:53:12;7.60;;;6.25;;
8349;SDS011;60699;48.946;8.412;2023-04-29T11:55:40;7.65;;;5.85;;
8349;SDS011;60699;48.946;8.412;2023-04-29T11:58:08;9.15;;;6.55;;
8349;SDS011;60699;48.946;8.412;2023-04-29T12:00:35;5.88;;;5.10;;
8349;SDS011;60699;48.946;8.412;2023-04-29T12:03:06;9.30;;;5.50;;
8349;SDS011;60699;48.946;8.412;2023-04-29T12:05:35;10.57;;;6.55;;
8349;SDS011;60699;48.946;8.412;2023-04-29T12:08:02;7.10;;;6.40;;
8349;SDS011;60699;48.946;8.412;2023-04-29T12:10:29;7.35;;;5.55;;
8349;SDS011;60699;48.946;8.412;2023-04-29T12:12:56;5.00;;;4.40;;
8349;SDS011;60699;48.946;8.412;2023-04-29T12:15:24;6.57;;;5.07;;
8349;SDS011;60699;48.946;8.412;2023-04-29T12:17:52;9.32;;;5.22;;
8349;SDS011;60699;48.946;8.412;2023-04-29T12:20:19;8.82;;;6.20;;
8349;SDS011;60699;48.946;8.412;2023-04-29T12:22:48;7.90;;;5.57;;
8349;SDS011;60699;48.946;8.412;2023-04-29T12:25:15;5.82;;;4.43;;
8349;SDS011;60699;48.946;8.412;2023-04-29T12:27:42;6.68;;;5.50;;
8349;SDS011;60699;48.946;8.412;2023-04-29T12:30:10;6.80;;;4.10;;
8349;SDS011;60699;48.946;8.412;2023-04-29T12:32:37;5.63;;;4.75;;
8349;SDS011;60699;48.946;8.412;2023-04-29T12:35:04;7.20;;;4.50;;
8349;SDS011;60699;48.946;8.412;2023-04-29T12:37:32;5.28;;;4.25;;
8349;SDS011;60699;48.946;8.412;2023-04-29T12:40:00;8.48;;;4.90;;
8349;SDS011;60699;48.946;8.412;2023-04-29T12:42:30;8.27;;;4.53;;
8349;SDS011;60699;48.946;8.412;2023-04-29T12:44:58;6.45;;;5.45;;
8349;SDS011;60699;48.946;8.412;2023-04-29T12:47:29;5.40;;;4.70;;
8349;SDS011;60699;48.946;8.412;2023-04-29T12:49:59;5.78;;;4.28;;
8349;SDS011;60699;48.946;8.412;2023-04-29T12:52:26;5.75;;;4.35;;
8349;SDS011;60699;48.946;8.412;2023-04-29T12:54:55;6.60;;;4.45;;
8349;SDS011;60699;48.946;8.412;2023-04-29T12:57:23;5.10;;;3.92;;
8349;SDS011;60699;48.946;8.412;2023-04-29T12:59:51;5.15;;;4.65;;
8349;SDS011;60699;48.946;8.412;2023-04-29T13:02:18;8.52;;;4.88;;
8349;SDS011;60699;48.946;8.412;2023-04-29T13:04:45;5.57;;;4.75;;
8349;SDS011;60699;48.946;8.412;2023-04-29T13:07:13;6.43;;;5.05;;
8349;SDS011;60699;48.946;8.412;2023-04-29T13:09:40;6.88;;;4.90;;
8349;SDS011;60699;48.946;8.412;2023-04-29T13:12:07;5.80;;;4.57;;
8349;SDS011;60699;48.946;8.412;2023-04-29T13:14:35;7.43;;;5.47;;
8349;SDS011;60699;48.946;8.412;2023-04-29T13:17:02;6.13;;;4.47;;
8349;SDS011;60699;48.946;8.412;2023-04-29T13:19:30;6.90;;;5.03;;
8349;SDS011;60699;48.946;8.412;2023-04-29T13:21:57;7.18;;;5.10;;
8349;SDS011;60699;48.946;8.412;2023-04-29T13:24:24;6.10;;;5.22;;
8349;SDS011;60699;48.946;8.412;2023-04-29T13:26:51;7.85;;;5.50;;
8349;SDS011;60699;48.946;8.412;2023-04-29T13:29:19;8.70;;;5.45;;
8349;SDS011;60699;48.946;8.412;2023-04-29T13:31:47;5.68;;;4.53;;
8349;SDS011;60699;48.946;8.412;2023-04-29T13:34:14;5.95;;;4.65;;
8349;SDS011;60699;48.946;8.412;2023-04-29T13:36:41;8.85;;;6.10;;
8349;SDS011;60699;48.946;8.412;2023-04-29T13:39:08;5.88;;;4.43;;
8349;SDS011;60699;48.946;8.412;2023-04-29T13:41:35;9.27;;;5.67;;
8349;SDS011;60699;48.946;8.412;2023-04-29T13:44:02;5.80;;;4.72;;
8349;SDS011;60699;48.946;8.412;2023-04-29T13:46:29;6.63;;;5.47;;
8349;SDS011;60699;48.946;8.412;2023-04-29T13:48:58;6.00;;;5.00;;
8349;SDS011;60699;48.946;8.412;2023-04-29T13:51:25;6.18;;;4.55;;
8349;SDS011;60699;48.946;8.412;2023-04-29T13:53:52;5.65;;;4.78;;
8349;SDS011;60699;48.946;8.412;2023-04-29T13:56:20;7.45;;;5.53;;
8349;SDS011;60699;48.946;8.412;2023-04-29T13:58:49;5.80;;;5.13;;
8349;SDS011;60699;48.946;8.412;2023-04-29T14:01:16;7.85;;;4.97;;
8349;SDS011;60699;48.946;8.412;2023-04-29T14:03:43;6.63;;;4.97;;
8349;SDS011;60699;48.946;8.412;2023-04-29T14:06:12;6.40;;;4.90;;
8349;SDS011;60699;48.946;8.412;2023-04-29T14:08:39;6.78;;;4.95;;
8349;SDS011;60699;48.946;8.412;2023-04-29T14:11:06;5.97;;;4.53;;
8349;SDS011;60699;48.946;8.412;2023-04-29T14:13:33;6.50;;;5.63;;
8349;SDS011;60699;48.946;8.412;2023-04-29T14:16:00;5.75;;;4.45;;
8349;SDS011;60699;48.946;8.412;2023-04-29T14:18:30;5.30;;;3.78;;
8349;SDS011;60699;48.946;8.412;2023-04-29T14:20:57;5.10;;;4.10;;
8349;SDS011;60699;48.946;8.412;2023-04-29T14:23:25;5.53;;;4.88;;
8349;SDS011;60699;48.946;8.412;2023-04-29T14:25:52;8.80;;;5.40;;
8349;SDS011;60699;48.946;8.412;2023-04-29T14:28:19;4.17;;;3.83;;
8349;SDS011;60699;48.946;8.412;2023-04-29T14:30:47;4.40;;;4.00;;
8349;SDS011;60699;48.946;8.412;2023-04-29T14:33:14;6.53;;;4.60;;
8349;SDS011;60699;48.946;8.412;2023-04-29T14:35:41;4.90;;;4.40;;
8349;SDS011;60699;48.946;8.412;2023-04-29T14:38:08;4.97;;;3.70;;
8349;SDS011;60699;48.946;8.412;2023-04-29T14:40:36;3.80;;;3.40;;
8349;SDS011;60699;48.946;8.412;2023-04-29T14:43:04;5.03;;;3.92;;
8349;SDS011;60699;48.946;8.412;2023-04-29T14:45:31;8.32;;;4.25;;
8349;SDS011;60699;48.946;8.412;2023-04-29T14:47:58;5.88;;;3.75;;
8349;SDS011;60699;48.946;8.412;2023-04-29T14:50:25;5.00;;;4.50;;
8349;SDS011;60699;48.946;8.412;2023-04-29T14:52:52;7.03;;;4.90;;
8349;SDS011;60699;48.946;8.412;2023-04-29T14:55:21;4.18;;;3.78;;
8349;SDS011;60699;48.946;8.412;2023-04-29T14:57:50;4.80;;;4.40;;
8349;SDS011;60699;48.946;8.412;2023-04-29T15:00:17;4.70;;;4.22;;
8349;SDS011;60699;48.946;8.412;2023-04-29T15:02:44;3.15;;;2.95;;
8349;SDS011;60699;48.946;8.412;2023-04-29T15:05:11;5.10;;;4.60;;
8349;SDS011;60699;48.946;8.412;2023-04-29T15:07:38;5.20;;;4.70;;
8349;SDS011;60699;48.946;8.412;2023-04-29T15:10:05;5.15;;;4.45;;